Airfield :







YOU CAN JOIN US ON...

 
LOGIN :

Register | Disclaimer

   EN    FR    IT 

 









Legend :    VFR   Marginal VFR   IFR   Intensive IFR   Very Intensive IFR
Visi :
Ceiling :
>= 8 km
>= 3000ft
5 to 8 km
1000 to 3000 ft
1500m to 5 km
500 to 1000 ft
800 to 1500m
200 to 500 ft
< 800m
< 200 ft
Symbols :   Thunderstorms  Fog  Heavy snow  Heavy precipitations  Wind > 20 kt







- Airport Elevation : 477 ft
- IATA code : YHZ


CYHZ - Halifax Stanfield Int.

CURRENT METAR :
  • 172100Z 30011G17KT 15SM SCT250 M04/M12 A2991 RMK CI3 SLP137

EXPIRED METARs :
  • 172000Z 32014KT 15SM SCT250 M03/M12 A2989 RMK CS3 SLP131
  • 171900Z 29015KT 15SM FEW250 M02/M11 A2987 RMK CI2 CC ASOCTD SLP124

TAF TAF CYHZ
Valid from the 17 at 21:00 until the 18 at 18:00 UTC


172039Z 1721/1818 32015KT P6SM FEW020
BECMG 1721/1723 30007KT
FM180500 32008KT P6SM BKN180
FM181100 34006KT P6SM BKN100
FM181600 29008KT 4SM -SN SCT020 OVC090 RMK NXT FCST BY 180000Z
CZQM FIR / North America



MET'MAP, your aeronautical weather chart ! - Copyright ORBIFLY December 2007 - Disclaimer

ORBIFLY MET'MAP TEAM :

Programming & Development : Alexandra Zaïnal
Concept & Development : Baudouin d'Aumeries
Co-Development & Prog : Marc-Olivier Méhu
Technical & hardware support : Manuel Goepfert

Contact : metmap@orbifly.com




SOURCES & CREDITS :

   NOAA